Time;durP1;ratioP1;P1;durP2;ratioP2;P2;SDS_P1;SDS_P2;PMS_P1;PMS_P2;Temp;Humidity;BMP_temperature;BMP_pressure;BME280_temperature;BME280_humidity;BME280_pressure;Samples;Min_cycle;Max_cycle;Signal;HPM_P1;HPM_P2
2023/01/29 00:00:09;;;;;;;2.13;1.10;;;;;;;23.52;44.36;101099.31;7387570;19;20074;-85
2023/01/29 00:02:38;;;;;;;;;;;;;;;23.62;44.18;101094.81;7393986;19;20369;-85
2023/01/29 00:05:05;;;;;;;1.92;0.70;;;;;;;23.58;44.51;101100.03;7387966;19;19915;-85
2023/01/29 00:07:32;;;;;;;2.13;0.63;;;;;;;23.75;44.14;101103.44;7390198;19;20504;-85
2023/01/29 00:09:58;;;;;;;3.70;1.45;;;;;;;23.71;44.07;101093.66;7389511;19;20031;-85
2023/01/29 00:12:24;;;;;;;3.78;1.23;;;;;;;23.81;43.94;101100.50;7392867;19;20392;-85
2023/01/29 00:14:50;;;;;;;3.15;1.08;;;;;;;23.68;44.20;101098.34;7389698;19;20082;-84
2023/01/29 00:17:16;;;;;;;2.75;0.88;;;;;;;23.89;43.84;101087.97;7390713;19;20364;-84
2023/01/29 00:19:43;;;;;;;2.97;1.67;;;;;;;23.84;44.24;101088.81;7389790;19;20102;-84
2023/01/29 00:22:09;;;;;;;1.50;0.70;;;;;;;23.77;43.92;101082.97;7392445;19;20468;-85
2023/01/29 00:24:35;;;;;;;5.22;0.68;;;;;;;23.40;44.44;101078.03;7387333;19;20014;-85
2023/01/29 00:27:01;;;;;;;4.30;0.75;;;;;;;23.59;44.31;101078.03;7387825;19;20018;-85
2023/01/29 00:29:28;;;;;;;1.23;0.85;;;;;;;23.63;44.22;101070.72;7388241;19;20057;-85
2023/01/29 00:31:54;;;;;;;1.98;1.55;;;;;;;23.72;43.99;101070.34;7388818;19;20019;-84
2023/01/29 00:34:21;;;;;;;3.60;0.50;;;;;;;23.60;44.34;101080.34;7388321;19;20085;-84
2023/01/29 00:36:48;;;;;;;5.00;0.73;;;;;;;23.67;43.90;101076.88;7388642;19;20059;-83
2023/01/29 00:39:14;;;;;;;4.25;1.13;;;;;;;23.71;44.12;101073.75;7387480;19;20359;-85
2023/01/29 00:50:11;;;;;;;;;;;;;;;23.53;44.33;101066.75;7389673;19;20024;-84
2023/01/29 00:52:39;;;;;;;1.63;0.32;;;;;;;23.57;44.15;101070.03;7386484;19;19944;-84
2023/01/29 00:55:07;;;;;;;6.93;0.65;;;;;;;23.74;43.71;101067.75;7388764;19;20015;-84
2023/01/29 00:57:34;;;;;;;0.57;0.57;;;;;;;23.97;43.74;101068.94;7384529;19;20025;-84
2023/01/29 01:00:02;;;;;;;2.58;1.02;;;;;;;23.99;43.37;101069.22;7385341;19;20408;-84
2023/01/29 01:05:16;;;;;;;0.30;0.20;;;;;;;23.82;43.67;101060.13;7384367;19;20022;-83
2023/01/29 01:07:48;;;;;;;0.88;0.65;;;;;;;23.41;44.20;101056.81;7390938;19;20021;-85
2023/01/29 01:10:23;;;;;;;;;;;;;;;23.71;43.68;101046.06;7388441;19;20015;-86
2023/01/29 01:12:59;;;;;;;0.40;0.40;;;;;;;23.77;43.50;101040.28;7396846;19;19922;-85
2023/01/29 01:15:29;;;;;;;1.63;0.80;;;;;;;23.81;43.83;101033.00;7397134;19;20018;-85
2023/01/29 01:17:57;;;;;;;0.35;0.35;;;;;;;23.15;44.71;101036.69;7395492;19;20011;-85
2023/01/29 01:20:25;;;;;;;2.05;0.77;;;;;;;23.10;44.81;101026.94;7396962;19;20378;-86
2023/01/29 01:22:55;;;;;;;2.95;0.52;;;;;;;23.06;44.89;101025.69;7398086;19;20018;-86
2023/01/29 01:25:26;;;;;;;2.55;0.75;;;;;;;23.16;44.45;101012.63;7393422;19;20013;-85
2023/01/29 01:27:54;;;;;;;0.30;0.30;;;;;;;23.27;44.33;101012.50;7394004;19;20085;-85
2023/01/29 01:30:21;;;;;;;3.40;0.80;;;;;;;23.42;44.31;101017.75;7394315;19;20014;-86
2023/01/29 01:32:47;;;;;;;11.50;1.90;;;;;;;23.64;44.23;101006.88;7398267;19;20006;-86
2023/01/29 01:35:14;;;;;;;0.93;0.52;;;;;;;23.54;43.64;101008.53;7396152;19;20011;-86
2023/01/29 01:37:40;;;;;;;6.90;0.77;;;;;;;23.33;44.26;101004.69;7397902;19;20014;-85
2023/01/29 01:40:16;;;;;;;1.13;0.75;;;;;;;23.53;44.03;101004.19;7396177;19;20031;-86
2023/01/29 01:42:46;;;;;;;8.65;0.85;;;;;;;23.68;43.70;100998.78;7398755;19;20014;-85
2023/01/29 01:45:21;;;;;;;1.58;0.55;;;;;;;22.90;44.97;100996.16;7394706;19;20026;-84
2023/01/29 01:47:51;;;;;;;0.90;0.43;;;;;;;22.74;45.03;100993.53;7393323;19;20019;-85
2023/01/29 01:50:27;;;;;;;0.52;0.20;;;;;;;22.81;44.83;100998.59;7392525;19;20093;-85
2023/01/29 01:53:01;;;;;;;1.92;1.02;;;;;;;22.76;45.21;100996.59;7396840;19;20025;-85
2023/01/29 01:55:29;;;;;;;0.68;0.60;;;;;;;22.83;45.19;100987.44;7397361;19;20025;-85
2023/01/29 01:58:08;;;;;;;1.75;0.20;;;;;;;22.68;45.48;100990.72;7396230;19;20018;-86
2023/01/29 02:00:37;;;;;;;8.45;1.80;;;;;;;22.79;45.25;100990.59;7395229;19;20010;-85
2023/01/29 02:11:39;;;;;;;2.35;1.45;;;;;;;22.66;45.43;100981.97;7395856;19;20010;-86
2023/01/29 02:14:07;;;;;;;3.90;0.90;;;;;;;22.81;45.34;100981.53;7396948;19;20075;-86
2023/01/29 02:16:35;;;;;;;0.35;0.25;;;;;;;22.59;45.73;100980.47;7395426;19;20018;-86
2023/01/29 02:19:08;;;;;;;2.70;1.33;;;;;;;22.44;45.88;100982.94;7396634;19;20116;-86
2023/01/29 02:21:43;;;;;;;0.35;0.30;;;;;;;22.50;45.72;100977.22;7395191;19;20082;-86
2023/01/29 02:24:24;;;;;;;2.33;1.05;;;;;;;22.39;46.23;100985.84;7391432;19;20772;-86
2023/01/29 02:26:57;;;;;;;;;;;;;;;22.60;46.21;100984.88;7395891;19;20030;-86
2023/01/29 02:29:51;;;;;;;0.43;0.43;;;;;;;22.74;46.02;100993.53;7396404;19;19933;-86
2023/01/29 02:32:31;;;;;;;0.75;0.55;;;;;;;22.76;46.00;100985.22;7396669;19;20025;-85
2023/01/29 02:35:25;;;;;;;1.30;0.70;;;;;;;22.71;45.74;100977.53;7395279;19;20021;-86
2023/01/29 02:38:18;;;;;;;1.65;0.55;;;;;;;22.86;45.69;100975.81;7398506;19;20046;-86
2023/01/29 02:41:06;;;;;;;1.02;0.52;;;;;;;22.85;45.66;100970.66;7395719;19;20018;-86
2023/01/29 02:43:47;;;;;;;0.50;0.50;;;;;;;22.58;45.94;100970.41;7394772;19;20011;-85
2023/01/29 02:46:36;;;;;;;25.90;2.13;;;;;;;22.77;45.83;100958.34;7395816;19;20035;-86
2023/01/29 02:49:22;;;;;;;0.52;0.38;;;;;;;22.83;46.07;100964.72;7394022;19;20382;-86
2023/01/29 02:52:03;;;;;;;12.40;0.85;;;;;;;22.80;45.89;100952.38;7397595;19;20018;-85
2023/01/29 02:55:03;;;;;;;3.63;1.52;;;;;;;22.90;46.16;100949.94;7394664;19;20400;-86
2023/01/29 02:57:35;;;;;;;7.43;0.80;;;;;;;22.75;46.27;100949.59;7394278;19;20023;-86
2023/01/29 03:00:13;;;;;;;1.55;1.10;;;;;;;22.84;46.28;100957.75;7394495;19;20018;-86
2023/01/29 03:03:07;;;;;;;0.90;0.30;;;;;;;22.74;45.98;100948.06;7396797;19;20025;-86
2023/01/29 03:05:52;;;;;;;1.00;0.68;;;;;;;22.58;46.56;100950.53;7393595;19;20030;-85
2023/01/29 03:08:35;;;;;;;1.65;1.20;;;;;;;23.31;45.71;100936.22;7393738;19;20015;-86
2023/01/29 03:11:05;;;;;;;5.78;0.55;;;;;;;23.34;45.38;100938.00;7393160;19;20014;-86
2023/01/29 03:13:44;;;;;;;0.98;0.68;;;;;;;23.30;45.11;100943.22;7396142;19;20460;-85
2023/01/29 03:16:11;;;;;;;1.23;0.55;;;;;;;23.41;45.22;100939.47;7393427;19;20430;-86
2023/01/29 03:18:53;;;;;;;2.53;0.73;;;;;;;23.37;45.12;100931.25;7394266;19;20024;-86
2023/01/29 03:32:50;;;;;;;1.25;0.68;;;;;;;23.10;45.60;100921.00;7396665;19;20066;-86
2023/01/29 03:35:35;;;;;;;0.20;0.20;;;;;;;23.36;44.77;100912.66;7391304;19;20026;-87
2023/01/29 03:38:08;;;;;;;0.57;0.55;;;;;;;23.31;45.06;100910.63;7396109;19;20032;-85
2023/01/29 03:40:41;;;;;;;0.68;0.65;;;;;;;23.35;45.29;100928.94;7392999;19;20026;-86
2023/01/29 03:43:24;;;;;;;1.75;0.32;;;;;;;23.28;45.46;100920.25;7391723;19;20362;-87
2023/01/29 03:45:50;;;;;;;0.98;0.85;;;;;;;23.50;45.14;100928.47;7392525;19;20019;-86
2023/01/29 03:48:39;;;;;;;0.47;0.47;;;;;;;23.39;45.17;100922.19;7389946;19;20036;-87
2023/01/29 03:51:14;;;;;;;1.80;0.85;;;;;;;23.39;44.83;100922.94;7392450;19;20074;-86
2023/01/29 03:54:03;;;;;;;4.47;0.75;;;;;;;23.49;45.21;100921.25;7391227;19;20014;-86
2023/01/29 03:56:51;;;;;;;3.40;0.95;;;;;;;23.45;45.12;100917.97;7391072;19;20014;-86
2023/01/29 03:59:30;;;;;;;2.20;0.20;;;;;;;23.46;45.33;100899.56;7392073;19;20047;-87
2023/01/29 04:02:28;;;;;;;1.23;0.47;;;;;;;23.24;45.44;100894.19;7391671;19;20011;-86
2023/01/29 04:05:04;;;;;;;1.52;0.80;;;;;;;23.22;45.11;100886.19;7388851;19;20007;-87
2023/01/29 04:07:33;;;;;;;0.40;0.35;;;;;;;23.32;44.73;100889.44;7391403;19;20035;-87
2023/01/29 04:10:16;;;;;;;1.10;0.82;;;;;;;23.24;45.25;100880.75;7390687;19;20109;-87
2023/01/29 04:12:49;;;;;;;0.60;0.50;;;;;;;23.29;45.29;100862.06;7395014;19;20027;-87
2023/01/29 04:15:16;;;;;;;0.45;0.45;;;;;;;23.50;44.70;100865.91;7393502;19;20007;-87
2023/01/29 04:17:51;;;;;;;0.57;0.57;;;;;;;23.49;44.61;100860.75;7393455;19;20070;-87
2023/01/29 04:20:36;;;;;;;2.72;0.98;;;;;;;23.70;44.07;100862.47;7392385;19;20007;-86
2023/01/29 04:23:06;;;;;;;5.55;0.55;;;;;;;23.71;43.96;100861.16;7391488;19;20325;-87
2023/01/29 04:25:45;;;;;;;0.80;0.20;;;;;;;23.53;44.15;100853.44;7390436;19;20070;-87
2023/01/29 04:28:20;;;;;;;2.40;0.82;;;;;;;23.33;43.98;100849.09;7392572;19;20070;-87
2023/01/29 04:30:49;;;;;;;1.70;0.43;;;;;;;23.02;44.26;100849.06;7391507;19;20022;-87
2023/01/29 04:33:28;;;;;;;0.40;0.22;;;;;;;22.98;44.12;100854.25;7391913;19;20011;-86
2023/01/29 04:36:17;;;;;;;1.52;0.77;;;;;;;22.97;43.62;100861.25;7392589;19;20050;-86
2023/01/29 04:39:10;;;;;;;12.68;1.15;;;;;;;23.23;43.73;100853.63;7392510;19;20079;-87
2023/01/29 04:41:44;;;;;;;2.08;1.23;;;;;;;23.25;43.85;100847.41;7390687;19;20018;-86
2023/01/29 04:44:20;;;;;;;1.13;0.90;;;;;;;23.28;43.47;100843.50;7388030;19;20015;-86
2023/01/29 04:47:08;;;;;;;0.20;0.03;;;;;;;23.33;43.76;100834.91;7385867;19;20014;-87
2023/01/29 04:49:34;;;;;;;0.88;0.85;;;;;;;23.40;43.66;100835.56;7397688;19;20018;-86
2023/01/29 04:52:18;;;;;;;0.75;0.35;;;;;;;23.45;43.49;100829.81;7400104;19;20118;-87
2023/01/29 04:55:05;;;;;;;0.45;0.32;;;;;;;23.56;43.51;100828.84;7399310;19;20010;-87
2023/01/29 04:57:58;;;;;;;1.15;0.57;;;;;;;23.42;43.44;100827.25;7400009;19;20052;-87
2023/01/29 05:00:34;;;;;;;0.10;0.10;;;;;;;23.43;43.54;100821.06;7398970;19;20036;-87
2023/01/29 05:03:01;;;;;;;0.90;0.57;;;;;;;23.25;43.89;100816.91;7396304;19;20027;-87
2023/01/29 05:05:29;;;;;;;0.30;0.30;;;;;;;23.38;43.66;100819.06;7399273;19;20014;-87
2023/01/29 05:07:57;;;;;;;0.30;0.15;;;;;;;23.55;43.78;100813.09;7402625;19;20346;-86
2023/01/29 05:10:24;;;;;;;1.02;0.85;;;;;;;23.71;42.98;100815.66;7398271;19;20014;-87
2023/01/29 05:12:58;;;;;;;3.50;0.30;;;;;;;23.67;42.80;100812.34;7400021;19;20018;-87
2023/01/29 05:15:37;;;;;;;0.32;0.32;;;;;;;23.39;43.62;100808.47;7398285;19;20002;-87
2023/01/29 05:18:07;;;;;;;0.70;0.57;;;;;;;23.52;43.71;100806.41;7400200;19;20047;-87
2023/01/29 05:20:37;;;;;;;0.35;0.20;;;;;;;23.43;43.75;100809.69;7398046;19;20398;-86
2023/01/29 05:23:03;;;;;;;1.98;0.88;;;;;;;23.43;43.59;100804.00;7397786;19;20021;-87
2023/01/29 05:25:32;;;;;;;0.60;0.43;;;;;;;23.54;43.72;100809.47;7398972;19;20024;-86
2023/01/29 05:28:15;;;;;;;1.17;1.00;;;;;;;23.38;43.80;100796.31;7399031;19;20010;-87
2023/01/29 05:30:43;;;;;;;1.60;1.08;;;;;;;23.19;43.27;100789.88;7397825;19;20007;-87
2023/01/29 05:33:21;;;;;;;0.82;0.52;;;;;;;23.13;43.79;100801.31;7397427;19;20044;-87
2023/01/29 05:35:48;;;;;;;1.30;0.20;;;;;;;22.92;44.17;100799.59;7397923;19;20341;-87
2023/01/29 05:38:18;;;;;;;0.70;0.55;;;;;;;22.91;44.21;100803.75;7400175;19;20078;-87
2023/01/29 05:40:45;;;;;;;0.22;0.22;;;;;;;22.80;44.10;100801.06;7396856;19;20018;-87
2023/01/29 05:43:17;;;;;;;3.92;0.73;;;;;;;22.98;44.11;100791.75;7396531;19;20056;-85
2023/01/29 05:45:51;;;;;;;1.17;0.52;;;;;;;23.14;44.48;100799.25;7397915;19;20036;-87
2023/01/29 05:48:17;;;;;;;0.60;0.28;;;;;;;23.13;44.16;100792.06;7398465;19;20029;-87
2023/01/29 05:50:43;;;;;;;0.38;0.15;;;;;;;22.95;44.18;100787.94;7397709;19;20468;-87
2023/01/29 05:53:09;;;;;;;0.22;0.22;;;;;;;22.99;43.72;100788.38;7398222;19;20015;-87
2023/01/29 05:55:35;;;;;;;1.48;0.20;;;;;;;22.80;44.09;100790.47;7398973;19;20326;-87
2023/01/29 05:58:02;;;;;;;1.33;0.55;;;;;;;23.04;44.36;100789.59;7396336;19;20807;-87
2023/01/29 06:00:28;;;;;;;0.10;0.10;;;;;;;23.03;44.17;100788.06;7396891;19;20043;-91
2023/01/29 06:02:55;;;;;;;0.10;0.10;;;;;;;23.01;43.84;100773.63;7398703;19;20018;-86
2023/01/29 06:05:21;;;;;;;0.45;0.38;;;;;;;23.02;43.66;100778.75;7394528;19;20027;-86
2023/01/29 06:07:47;;;;;;;1.95;0.70;;;;;;;22.89;43.94;100772.28;7394114;19;20027;-83
2023/01/29 06:10:15;;;;;;;0.52;0.40;;;;;;;22.95;44.16;100775.78;7392616;19;20015;-85
2023/01/29 06:12:42;;;;;;;1.35;0.20;;;;;;;23.01;44.18;100773.63;7395775;19;20010;-85
2023/01/29 06:15:10;;;;;;;1.50;0.52;;;;;;;23.10;43.93;100770.38;7392101;19;20041;-85
2023/01/29 06:17:37;;;;;;;2.10;0.65;;;;;;;23.02;43.90;100763.81;7392902;19;20082;-84
2023/01/29 06:20:04;;;;;;;0.20;0.20;;;;;;;23.01;43.90;100762.25;7392965;19;20373;-85
2023/01/29 06:22:32;;;;;;;0.75;0.63;;;;;;;22.86;44.09;100771.28;7394094;19;20073;-85
2023/01/29 06:24:58;;;;;;;1.70;0.40;;;;;;;22.72;44.02;100763.22;7390736;19;20492;-84
2023/01/29 06:27:24;;;;;;;0.35;0.28;;;;;;;22.71;44.15;100761.69;7391585;19;20022;-85
2023/01/29 06:29:50;;;;;;;0.60;0.50;;;;;;;22.69;43.89;100770.75;7391450;19;20022;-85
2023/01/29 06:32:16;;;;;;;1.38;0.60;;;;;;;22.87;43.90;100764.28;7393629;19;20021;-85
2023/01/29 06:34:43;;;;;;;1.35;1.02;;;;;;;22.77;43.69;100762.38;7392038;19;20018;-85
2023/01/29 06:37:09;;;;;;;0.63;0.63;;;;;;;22.75;43.52;100762.91;7393493;19;20015;-85
2023/01/29 06:39:35;;;;;;;0.35;0.35;;;;;;;22.88;43.46;100762.97;7392068;19;20457;-85
2023/01/29 06:42:01;;;;;;;5.60;0.75;;;;;;;22.92;43.15;100762.66;7393817;19;20013;-84
2023/01/29 06:44:27;;;;;;;0.50;0.50;;;;;;;23.11;43.15;100766.22;7389321;19;20074;-85
2023/01/29 06:46:53;;;;;;;0.10;0.05;;;;;;;23.00;42.89;100764.31;7393865;19;20094;-85
2023/01/29 06:49:20;;;;;;;0.30;0.30;;;;;;;22.87;43.01;100764.28;7393573;19;20011;-84
2023/01/29 06:51:46;;;;;;;1.60;0.75;;;;;;;23.26;42.82;100772.19;7394479;19;20015;-84
2023/01/29 06:54:12;;;;;;;3.15;1.25;;;;;;;23.16;42.64;100769.00;7390744;19;20052;-84
2023/01/29 06:56:38;;;;;;;0.20;0.20;;;;;;;23.10;42.75;100771.16;7392650;19;20026;-85
2023/01/29 06:59:04;;;;;;;0.40;0.40;;;;;;;22.86;43.18;100767.66;7391664;19;20090;-85
2023/01/29 07:01:31;;;;;;;1.27;0.30;;;;;;;22.55;43.15;100761.34;7393016;19;20074;-84
2023/01/29 07:03:57;;;;;;;5.97;0.55;;;;;;;22.62;43.14;100762.84;7390579;19;20015;-85
2023/01/29 07:06:29;;;;;;;4.18;0.88;;;;;;;22.63;42.81;100749.41;7392126;19;20090;-85
2023/01/29 07:08:56;;;;;;;0.20;0.17;;;;;;;22.55;42.63;100755.69;7395434;19;20007;-85
2023/01/29 07:11:22;;;;;;;1.65;0.30;;;;;;;21.95;43.25;100748.72;7392416;19;20019;-86
2023/01/29 07:13:48;;;;;;;1.40;0.50;;;;;;;22.46;42.83;100750.38;7392710;19;20038;-85
2023/01/29 07:16:14;;;;;;;2.40;0.82;;;;;;;22.77;42.83;100748.94;7391154;19;20014;-85
2023/01/29 07:18:40;;;;;;;0.75;0.47;;;;;;;22.63;42.67;100749.41;7391774;19;20348;-85
2023/01/29 07:21:07;;;;;;;0.40;0.32;;;;;;;22.72;42.25;100751.88;7393034;19;20019;-85
2023/01/29 07:23:34;;;;;;;3.13;1.13;;;;;;;22.80;42.23;100752.78;7390354;19;20015;-85
2023/01/29 07:26:02;;;;;;;0.73;0.55;;;;;;;22.89;42.06;100755.22;7391875;19;20015;-84
2023/01/29 07:28:28;;;;;;;0.10;0.05;;;;;;;22.95;41.73;100750.22;7391352;19;20018;-85
2023/01/29 07:30:58;;;;;;;0.20;0.20;;;;;;;22.79;41.64;100756.91;7392542;19;20022;-85
2023/01/29 07:33:25;;;;;;;1.13;0.57;;;;;;;22.75;41.86;100753.63;7387913;19;20622;-86
2023/01/29 07:35:51;;;;;;;0.77;0.47;;;;;;;22.12;42.82;100746.44;7392411;19;20019;-85
2023/01/29 07:38:18;;;;;;;1.90;0.50;;;;;;;22.50;42.31;100748.00;7394023;19;20022;-85
2023/01/29 07:40:44;;;;;;;1.17;0.50;;;;;;;23.04;41.36;100752.66;7390056;19;20353;-84
2023/01/29 07:43:10;;;;;;;4.43;0.70;;;;;;;23.14;41.58;100748.09;7388715;19;20031;-85
2023/01/29 07:45:38;;;;;;;2.05;0.57;;;;;;;22.91;41.30;100742.03;7390504;19;20006;-87
2023/01/29 07:48:08;;;;;;;3.70;1.55;;;;;;;22.80;41.38;100744.25;7393104;19;20018;-86
2023/01/29 07:50:34;;;;;;;2.13;0.52;;;;;;;22.74;41.39;100746.41;7393122;19;20019;-86
2023/01/29 07:53:01;;;;;;;0.30;0.30;;;;;;;22.49;41.47;100735.13;7392643;19;20074;-86
2023/01/29 07:55:27;;;;;;;1.65;1.17;;;;;;;22.60;41.68;100732.16;7391374;19;20023;-86
2023/01/29 07:57:55;;;;;;;1.73;0.73;;;;;;;22.65;41.50;100735.44;7392644;19;20022;-87
2023/01/29 08:00:22;;;;;;;0.40;0.40;;;;;;;22.76;41.36;100743.81;7392598;19;20163;-87
2023/01/29 08:02:48;;;;;;;1.15;0.20;;;;;;;22.39;41.59;100742.47;7395080;19;20010;-86
2023/01/29 08:05:14;;;;;;;1.20;0.63;;;;;;;22.26;41.93;100745.22;7392002;19;20015;-87
2023/01/29 08:07:40;;;;;;;0.35;0.35;;;;;;;22.08;42.03;100748.81;7391100;19;20027;-87
2023/01/29 08:10:07;;;;;;;0.60;0.52;;;;;;;22.54;41.50;100748.44;7386415;19;20439;-86
2023/01/29 08:12:33;;;;;;;0.80;0.55;;;;;;;22.57;41.26;100733.19;7393685;19;20038;-87
2023/01/29 08:14:59;;;;;;;0.35;0.35;;;;;;;22.86;40.87;100733.56;7392532;19;20014;-88
2023/01/29 08:17:25;;;;;;;0.35;0.15;;;;;;;22.86;40.97;100733.56;7393052;19;20011;-88
2023/01/29 08:19:52;;;;;;;1.42;0.63;;;;;;;23.49;39.96;100739.25;7392843;19;20082;-88
2023/01/29 08:22:18;;;;;;;1.58;0.60;;;;;;;23.21;40.48;100741.78;7398367;19;20070;-86
2023/01/29 08:24:44;;;;;;;1.98;0.85;;;;;;;23.16;40.26;100742.63;7396072;19;20029;-85
2023/01/29 08:27:10;;;;;;;0.10;0.10;;;;;;;23.26;40.57;100740.91;7398591;19;20022;-86
2023/01/29 08:29:36;;;;;;;0.52;0.43;;;;;;;23.13;40.31;100740.91;7399695;19;20496;-84
2023/01/29 08:32:02;;;;;;;0.20;0.20;;;;;;;23.22;40.16;100751.84;7399547;19;20014;-85
2023/01/29 08:34:28;;;;;;;0.13;0.13;;;;;;;23.58;39.87;100743.75;7399454;19;20398;-86
2023/01/29 08:36:55;;;;;;;1.13;0.75;;;;;;;24.04;39.23;100746.75;7400238;19;20086;-86
2023/01/29 08:39:21;;;;;;;2.30;0.57;;;;;;;23.89;39.32;100743.66;7398319;19;20018;-84
2023/01/29 08:41:47;;;;;;;1.75;0.52;;;;;;;23.22;40.01;100746.16;7399051;19;20353;-84
2023/01/29 08:44:13;;;;;;;2.05;1.15;;;;;;;23.71;39.49;100743.78;7393483;19;20022;-85
2023/01/29 08:46:39;;;;;;;2.17;0.65;;;;;;;23.65;39.72;100745.97;7396544;19;20014;-86
2023/01/29 08:49:07;;;;;;;6.18;1.15;;;;;;;23.61;39.87;100729.19;7395004;19;20015;-86
2023/01/29 08:51:33;;;;;;;10.70;2.10;;;;;;;23.83;39.79;100740.16;7394646;19;20503;-86
2023/01/29 08:53:59;;;;;;;3.60;1.63;;;;;;;24.18;38.98;100741.06;7396169;19;20018;-86
2023/01/29 08:56:25;;;;;;;0.20;0.20;;;;;;;24.15;39.16;100733.63;7399147;19;20018;-86
2023/01/29 08:58:51;;;;;;;2.55;0.43;;;;;;;24.42;38.97;100737.94;7398695;19;20046;-87
2023/01/29 09:01:18;;;;;;;1.42;0.35;;;;;;;24.31;39.14;100732.50;7398653;19;20018;-87
2023/01/29 09:03:44;;;;;;;0.77;0.63;;;;;;;24.46;38.88;100739.16;7397370;19;20026;-87
2023/01/29 09:06:12;;;;;;;1.60;0.52;;;;;;;24.88;38.41;100734.34;7400101;19;20014;-86
2023/01/29 09:08:39;;;;;;;13.02;1.27;;;;;;;24.79;38.60;100731.94;7402694;19;20364;-86
2023/01/29 09:11:06;;;;;;;1.63;0.88;;;;;;;24.90;38.35;100728.06;7398794;19;20117;-86
2023/01/29 09:13:33;;;;;;;7.38;1.83;;;;;;;24.68;38.65;100720.78;7400545;19;20018;-86
2023/01/29 09:16:03;;;;;;;2.53;1.75;;;;;;;24.78;38.36;100724.72;7399270;19;20483;-86
2023/01/29 09:18:30;;;;;;;5.50;1.60;;;;;;;24.96;38.31;100723.75;7399030;19;20469;-88
2023/01/29 09:20:57;;;;;;;3.80;1.20;;;;;;;25.07;37.97;100723.50;7399943;19;20048;-88
2023/01/29 09:23:23;;;;;;;0.50;0.50;;;;;;;24.73;38.09;100714.19;7396844;19;20011;-88
2023/01/29 09:25:49;;;;;;;1.77;1.52;;;;;;;24.95;37.80;100710.81;7399548;19;20022;-87
2023/01/29 09:28:18;;;;;;;2.42;0.63;;;;;;;25.08;37.46;100710.00;7398866;19;20021;-88
2023/01/29 09:30:45;;;;;;;2.28;1.77;;;;;;;25.08;37.48;100719.31;7400262;19;20010;-88
2023/01/29 09:33:11;;;;;;;2.63;0.70;;;;;;;25.27;37.38;100719.13;7399762;19;20022;-88
2023/01/29 09:35:42;;;;;;;5.07;1.38;;;;;;;25.55;37.40;100711.34;7397789;19;20018;-87
2023/01/29 09:38:09;;;;;;;0.40;0.40;;;;;;;25.47;36.80;100710.53;7401129;19;20019;-88
2023/01/29 09:41:02;;;;;;;2.08;0.88;;;;;;;25.39;36.56;100714.63;7396752;19;20038;-88
2023/01/29 09:43:37;;;;;;;0.95;0.40;;;;;;;25.37;36.75;100709.50;7398746;19;20472;-87
2023/01/29 09:46:12;;;;;;;1.20;0.63;;;;;;;25.52;36.57;100706.78;7398068;19;20021;-88
2023/01/29 09:48:38;;;;;;;12.68;1.30;;;;;;;25.65;36.86;100696.59;7398654;19;20082;-89
2023/01/29 09:51:14;;;;;;;2.08;0.98;;;;;;;25.88;36.22;100694.66;7400562;19;20010;-89
2023/01/29 09:53:53;;;;;;;1.70;0.70;;;;;;;25.91;36.52;100699.22;7399164;19;20021;-88
2023/01/29 09:56:22;;;;;;;6.97;1.25;;;;;;;25.73;36.19;100703.13;7398530;19;20341;-89
2023/01/29 09:58:48;;;;;;;0.57;0.47;;;;;;;25.35;36.54;100703.59;7396835;19;20003;-88
2023/01/29 10:01:28;;;;;;;2.30;0.50;;;;;;;25.62;35.92;100692.75;7399153;19;20023;-88
2023/01/29 10:04:15;;;;;;;5.60;1.00;;;;;;;25.49;36.33;100696.50;7397827;19;20007;-89
2023/01/29 10:07:04;;;;;;;2.20;0.55;;;;;;;25.23;36.84;100696.63;7398197;19;20018;-87
2023/01/29 10:09:46;;;;;;;1.08;0.38;;;;;;;25.03;37.08;100714.53;7399296;19;20006;-87
2023/01/29 10:12:36;;;;;;;1.00;0.35;;;;;;;25.33;37.45;100700.53;7399758;19;20015;-87
2023/01/29 10:15:16;;;;;;;0.73;0.63;;;;;;;25.47;36.97;100693.44;7397417;19;20010;-88
2023/01/29 10:18:20;;;;;;;2.00;0.57;;;;;;;25.49;36.92;100702.19;7396881;19;20010;-88
2023/01/29 10:21:18;;;;;;;0.63;0.20;;;;;;;25.53;36.68;100702.59;7394276;19;20011;-90
2023/01/29 10:23:52;;;;;;;1.42;0.73;;;;;;;25.52;36.46;100706.78;7394238;19;20007;-88
2023/01/29 10:26:23;;;;;;;0.50;0.50;;;;;;;25.78;36.82;100707.91;7395792;19;20026;-88
2023/01/29 10:28:54;;;;;;;1.23;1.13;;;;;;;25.99;36.71;100722.88;7397295;19;20362;-88
2023/01/29 10:31:31;;;;;;;2.88;0.20;;;;;;;26.15;36.22;100718.78;7396899;19;20014;-88
2023/01/29 10:34:28;;;;;;;0.30;0.30;;;;;;;26.11;36.22;100712.69;7398304;19;20025;-88
2023/01/29 10:36:55;;;;;;;2.08;0.75;;;;;;;26.10;36.48;100709.06;7396097;19;20022;-88
2023/01/29 10:39:24;;;;;;;0.50;0.30;;;;;;;25.94;37.00;100706.66;7396542;19;20373;-89
2023/01/29 10:42:04;;;;;;;0.85;0.65;;;;;;;26.12;36.78;100694.22;7397793;19;20491;-88
2023/01/29 10:44:36;;;;;;;0.60;0.47;;;;;;;25.71;36.63;100682.94;7393383;19;20372;-88
2023/01/29 10:47:21;;;;;;;1.55;0.55;;;;;;;26.38;36.12;100685.38;7396318;19;20010;-88
2023/01/29 10:50:09;;;;;;;0.73;0.20;;;;;;;26.80;35.65;100689.53;7398211;19;20010;-87
2023/01/29 10:53:12;;;;;;;0.90;0.57;;;;;;;26.66;35.04;100679.53;7398443;19;20006;-86
2023/01/29 10:55:54;;;;;;;0.85;0.65;;;;;;;26.53;35.14;100671.13;7393289;19;20022;-87
2023/01/29 10:58:26;;;;;;;;;;;;;;;26.90;35.06;100659.03;7396578;19;20014;-88
2023/01/29 11:00:52;;;;;;;0.73;0.73;;;;;;;26.80;34.69;100660.16;7397382;19;20286;-88
2023/01/29 11:03:25;;;;;;;0.20;0.20;;;;;;;26.63;34.57;100659.91;7394668;19;20041;-87
2023/01/29 11:05:57;;;;;;;0.25;0.25;;;;;;;26.52;35.06;100646.00;7394887;19;20026;-85
2023/01/29 11:08:28;;;;;;;2.83;1.00;;;;;;;26.72;34.65;100645.84;7398140;19;20010;-87
2023/01/29 11:11:08;;;;;;;6.30;0.35;;;;;;;26.99;34.42;100637.69;7394238;19;20023;-87
2023/01/29 11:13:44;;;;;;;5.70;1.27;;;;;;;26.81;34.34;100631.00;7394397;19;20007;-88
2023/01/29 11:16:11;;;;;;;4.57;1.55;;;;;;;26.95;34.54;100626.63;7394122;19;20024;-86
2023/01/29 11:18:58;;;;;;;4.95;1.15;;;;;;;27.15;34.76;100621.28;7395753;19;20010;-87
2023/01/29 11:21:26;;;;;;;8.68;2.33;;;;;;;27.61;34.14;100614.19;7394811;19;20010;-87
2023/01/29 11:24:16;;;;;;;6.38;1.77;;;;;;;27.16;34.45;100611.38;7392275;19;20014;-87
2023/01/29 11:26:45;;;;;;;9.77;2.75;;;;;;;27.62;34.23;100607.88;7392166;19;20015;-86
2023/01/29 11:29:38;;;;;;;16.27;2.22;;;;;;;27.91;33.92;100599.00;7393467;19;20369;-87
2023/01/29 11:32:22;;;;;;;2.15;1.65;;;;;;;28.10;34.10;100597.22;7393514;19;20033;-86
2023/01/29 11:35:20;;;;;;;2.30;1.00;;;;;;;28.06;33.93;100594.00;7395068;19;20082;-86
2023/01/29 11:37:46;;;;;;;4.57;0.43;;;;;;;27.90;33.77;100592.50;7395348;19;20034;-86
2023/01/29 11:40:18;;;;;;;2.92;1.83;;;;;;;28.11;34.12;100593.00;7392301;19;20026;-87
2023/01/29 11:42:45;;;;;;;2.72;0.93;;;;;;;28.18;33.49;100595.06;7394474;19;20022;-85
2023/01/29 11:45:33;;;;;;;0.10;0.10;;;;;;;27.80;34.06;100588.72;7394520;19;20018;-87
2023/01/29 11:48:00;;;;;;;1.23;1.10;;;;;;;27.73;34.32;100572.34;7391827;19;20336;-87
2023/01/29 11:50:32;;;;;;;1.02;0.52;;;;;;;27.57;34.16;100571.63;7391624;19;20476;-87
2023/01/29 11:53:00;;;;;;;0.10;0.10;;;;;;;27.36;34.39;100559.69;7387062;19;20026;-87
2023/01/29 11:55:32;;;;;;;1.75;0.50;;;;;;;27.65;34.56;100560.16;7384978;19;20026;-87
2023/01/29 11:58:15;;;;;;;6.18;1.08;;;;;;;27.41;34.60;100557.97;7384897;19;20051;-87
2023/01/29 12:00:48;;;;;;;0.73;0.40;;;;;;;27.42;34.77;100559.47;7384606;19;20017;-87
2023/01/29 12:03:16;;;;;;;0.45;0.32;;;;;;;27.59;34.60;100551.03;7385489;19;20368;-85
2023/01/29 12:05:57;;;;;;;0.38;0.38;;;;;;;27.65;34.05;100554.44;7383359;19;20018;-86
2023/01/29 12:08:24;;;;;;;0.30;0.20;;;;;;;27.59;34.42;100539.59;7388058;19;20014;-87
2023/01/29 12:10:50;;;;;;;0.43;0.43;;;;;;;27.70;34.17;100539.91;7386010;19;20714;-87
2023/01/29 12:13:26;;;;;;;4.35;1.10;;;;;;;27.74;34.56;100545.25;7386452;19;20018;-86
2023/01/29 12:16:16;;;;;;;7.50;1.40;;;;;;;27.58;34.80;100532.34;7384657;19;20017;-86
2023/01/29 12:19:01;;;;;;;16.55;2.80;;;;;;;27.49;34.26;100524.34;7384389;19;20460;-86
2023/01/29 12:21:41;;;;;;;9.95;2.78;;;;;;;26.88;34.37;100521.63;7387087;19;20014;-86